Lake Ann, Michigan
Current Conditions -  °F | °C
As of 11:21 PM on Monday 22 Dec 2014 (Local Time) from KTVC Reporting Station
Light Rain Light Rain  
Wind Chill: 28°   Ceiling: 2900
Heat Index: 33°   Visibility: 7mi
Dew Point: 30°   Wind: 6mph
Humidity: 89%   Direction: 100°E
Pressure: 29.85"   Gusts: NA
Location:  44.72°N, 85.84°W
Report Text: KTVC 230421Z AUTO 10005KT 7SM -RA FEW013 OVC029 01/M01 A2985 RMK AO2 P0001 T00061011
Loading
Personal Weather Stations






























Interactive Weather Map New forecast layout! Learn more

10-Day Weather Forecast

Advertisements
Track Severe Weather on mobile